WetterOnline ( https://www.wetteronline.at )

Wetter aktuell Uckermark

Aktuelles Wetter: Feldberg (115m)

6-stündlich | Neueste Meldungen
Ortszeit Temperatur Wetter
Sa, 04.07. 8:00 18.5° C wolkig
Sa, 04.07. 2:00 16.2° C bewölkt
Fr, 03.07. 20:00 19.7° C leicht bewölkt
Fr, 03.07. 14:00 21.2° C -
Fr, 03.07. 8:00 14.9° C -
Fr, 03.07. 2:00 14.7° C -
Do, 02.07. 20:00 18.1° C -
Do, 02.07. 14:00 20.9° C bedeckt
Ortszeit Temperatur Wetter
Sa, 04.07. 11:10 20.5° C bedeckt
Sa, 04.07. 11:00 20.6° C bedeckt
Sa, 04.07. 10:50 20.6° C bedeckt
Sa, 04.07. 10:40 20.1° C bedeckt
Sa, 04.07. 10:30 20.2° C bedeckt
Sa, 04.07. 10:20 20.2° C bedeckt
Sa, 04.07. 10:00 19.6° C bedeckt
Sa, 04.07. 9:30 19.2° C bedeckt
Sa, 04.07. 9:00 20.0° C bedeckt
Sa, 04.07. 8:30 18.5° C bedeckt
Sa, 04.07. 8:00 18.5° C wolkig
Ortszeit Relative Feuchte Sichtweite
Sa, 04.07. 8:00 64% 55 km
Sa, 04.07. 2:00 79% 40 km
Fr, 03.07. 20:00 61% 60 km
Fr, 03.07. 14:00 50% >70 km
Fr, 03.07. 8:00 92% 12 km
Fr, 03.07. 2:00 96% 20 km
Do, 02.07. 20:00 88% 50 km
Do, 02.07. 14:00 58% 60 km
Ortszeit Relative Feuchte Sichtweite
Sa, 04.07. 11:10 54% -
Sa, 04.07. 11:00 53% 55 km
Sa, 04.07. 10:50 53% -
Sa, 04.07. 10:40 53% -
Sa, 04.07. 10:30 54% >70 km
Sa, 04.07. 10:20 54% -
Sa, 04.07. 10:00 55% 60 km
Sa, 04.07. 9:30 56% 55 km
Sa, 04.07. 9:00 56% >70 km
Sa, 04.07. 8:30 62% 60 km
Sa, 04.07. 8:00 64% 55 km
Ortszeit Niederschlagsmenge Niederschlagsart
Sa, 04.07. 8:00 0.0 l/m2 in 12 Std. -
Sa, 04.07. 2:00 0.0 l/m2 in 6 Std. -
Fr, 03.07. 20:00 0.0 l/m2 in 12 Std. -
Fr, 03.07. 14:00 0.0 l/m2 in 6 Std. -
Fr, 03.07. 8:00 1 l/m2 in 12 Std. Regen
Fr, 03.07. 2:00 0.3 l/m2 in 6 Std. Regen
Do, 02.07. 20:00 3 l/m2 in 12 Std. Regen
Do, 02.07. 14:00 0.0 l/m2 in 6 Std. -
Ortszeit Niederschlagsmenge Niederschlagsart
Sa, 04.07. 11:10 keine Meldung -
Sa, 04.07. 11:00 0.0 l/m2 in 1 Std. -
Sa, 04.07. 10:50 keine Meldung -
Sa, 04.07. 10:40 keine Meldung -
Sa, 04.07. 10:30 0.0 l/m2 in 1 Std. -
Sa, 04.07. 10:20 keine Meldung -
Sa, 04.07. 10:00 0.0 l/m2 in 1 Std. -
Sa, 04.07. 9:30 0.0 l/m2 in 1 Std. -
Sa, 04.07. 9:00 0.0 l/m2 in 1 Std. -
Sa, 04.07. 8:30 0.0 l/m2 in 1 Std. -
Sa, 04.07. 8:00 0.0 l/m2 in 1 Std. -
Ortszeit Stärke Spitze Richtung
km/h Bft. km/h Grad Sektor
Sa, 04.07. 8:00 22 4 36 220° SW
Sa, 04.07. 2:00 7 2 18 170° S
Fr, 03.07. 20:00 9 2 37 220° SW
Fr, 03.07. 14:00 22 4 40 250° W
Fr, 03.07. 8:00 11 2 29 270° W
Fr, 03.07. 2:00 6 1 28 280° W
Do, 02.07. 20:00 6 1 31 180° S
Do, 02.07. 14:00 14 3 32 240° SW
Ortszeit Stärke Spitze Richtung
km/h Bft. km/h Grad Sektor
Sa, 04.07. 11:10 28 4 - 230° SW
Sa, 04.07. 11:00 25 4 50 230° SW
Sa, 04.07. 10:50 25 4 - 230° SW
Sa, 04.07. 10:40 28 4 - 240° SW
Sa, 04.07. 10:30 29 5 50 240° SW
Sa, 04.07. 10:20 29 5 - 240° SW
Sa, 04.07. 10:00 33 5 48 240° SW
Sa, 04.07. 9:30 33 5 48 250° W
Sa, 04.07. 9:00 22 4 44 230° SW
Sa, 04.07. 8:30 20 4 43 220° SW
Sa, 04.07. 8:00 22 4 36 220° SW
Ortszeit Untergrenze Bedeckung Gattung
total tief tief mittel hoch
Sa, 04.07. 8:00 4500 m 8/8 8/8 - - -
Sa, 04.07. 2:00 2100 m 7/8 7/8 - - -
Fr, 03.07. 20:00 5400 m 5/8 2/8 - - -
Fr, 03.07. 14:00 - - - - - -
Fr, 03.07. 8:00 - - - - - -
Fr, 03.07. 2:00 - - - - - -
Do, 02.07. 20:00 - - - - - -
Do, 02.07. 14:00 1500 m 8/8 8/8 - - -
Ortszeit Bedeckungsgrad in Achtel und Wolkenuntergrenze
Sa, 04.07. 11:10 7(3300m) 8(4500m) 8(5100m)
Sa, 04.07. 11:00 5(3300m) 8(4200m) 8(5100m)
Sa, 04.07. 10:50 5(3300m) 8(4200m) 8(5100m)
Sa, 04.07. 10:40 5(3000m) 8(4200m)
Sa, 04.07. 10:30 4(3000m) 8(4200m) 8(4500m)
Sa, 04.07. 10:20 4(3000m) 8(4200m)
Sa, 04.07. 10:00 1(3900m) 8(4500m) 8(6900m)
Sa, 04.07. 9:30 8(4800m) 8(4800m)
Sa, 04.07. 9:00 8(4500m)
Sa, 04.07. 8:30 8(4500m)
Sa, 04.07. 8:00 8(4500m) 8(9000m)
Ortszeit Luftdruck NN (hPa) Tendenz (hPa in 3 Std.)
Sa, 04.07. 8:00 1014 - 0,5
Sa, 04.07. 2:00 1015 - 0,4
Fr, 03.07. 20:00 1015 0,0
Fr, 03.07. 14:00 1015 + 0,5
Fr, 03.07. 8:00 1013 + 1,4
Fr, 03.07. 2:00 1011 + 0,2
Do, 02.07. 20:00 1010 + 0,5
Do, 02.07. 14:00 1009 + 0,2
Ortszeit Luftdruck NN (hPa) Tendenz (hPa in 3 Std.)
Sa, 04.07. 11:10 1013 keine Meldung
Sa, 04.07. 11:00 1013 - 0,1
Sa, 04.07. 10:50 1013 keine Meldung
Sa, 04.07. 10:40 1013 keine Meldung
Sa, 04.07. 10:30 1013 - 0,1
Sa, 04.07. 10:20 1013 keine Meldung
Sa, 04.07. 10:00 1013 - 0,4
Sa, 04.07. 9:30 1013 - 0,5
Sa, 04.07. 9:00 1013 - 0,7
Sa, 04.07. 8:30 1013 - 0,6
Sa, 04.07. 8:00 1014 - 0,5
Ortszeit Schneehöhe (cm)
Sa, 04.07. 8:00 -
Sa, 04.07. 2:00 -
Fr, 03.07. 20:00 -
Fr, 03.07. 14:00 -
Fr, 03.07. 8:00 -
Fr, 03.07. 2:00 -
Do, 02.07. 20:00 -
Do, 02.07. 14:00 -
Ortszeit Schneehöhe (cm)
Sa, 04.07. 11:10 -
Sa, 04.07. 11:00 -
Sa, 04.07. 10:50 -
Sa, 04.07. 10:40 -
Sa, 04.07. 10:30 -
Sa, 04.07. 10:20 -
Sa, 04.07. 10:00 -
Sa, 04.07. 9:30 -
Sa, 04.07. 9:00 -
Sa, 04.07. 8:30 -
Sa, 04.07. 8:00 -
Link zu dieser Seite / Seite empfehlen

Das Wetter in ...